createdAt,value
2019-06-27T00:03:11.619Z,20.47
2019-06-27T00:06:26.564Z,19.77
2019-06-27T00:09:42.852Z,20.23
2019-06-27T00:12:57.858Z,20.23
2019-06-27T00:16:12.950Z,21.27
2019-06-27T00:19:28.873Z,21.03
2019-06-27T00:22:43.651Z,19.70
2019-06-27T00:25:59.067Z,21.30
2019-06-27T00:29:13.723Z,20.27
2019-06-27T00:32:28.478Z,21.43
2019-06-27T00:35:43.616Z,21.93
2019-06-27T00:38:58.434Z,20.87
2019-06-27T00:42:13.803Z,23.20
2019-06-27T00:45:28.758Z,22.47
2019-06-27T00:48:45.137Z,23.33
2019-06-27T00:52:00.268Z,22.50
2019-06-27T00:55:15.621Z,22.30
2019-06-27T00:58:30.693Z,21.23
2019-06-27T01:01:45.642Z,21.03
2019-06-27T01:05:00.499Z,22.97
2019-06-27T01:08:15.347Z,22.50
2019-06-27T01:11:30.653Z,22.70
2019-06-27T01:14:46.709Z,22.67
2019-06-27T01:18:01.348Z,22.70
2019-06-27T01:21:17.343Z,22.80
2019-06-27T01:24:32.781Z,22.70
2019-06-27T01:27:47.749Z,23.03
2019-06-27T01:31:02.579Z,24.03
2019-06-27T01:34:17.660Z,21.87
2019-06-27T01:37:32.983Z,23.07
2019-06-27T01:40:49.263Z,23.50
2019-06-27T01:44:06.868Z,22.60
2019-06-27T01:47:22.327Z,21.73
2019-06-27T01:50:37.584Z,23.53
2019-06-27T01:53:53.642Z,23.83
2019-06-27T01:57:09.489Z,23.70
2019-06-27T02:00:24.890Z,23.53
2019-06-27T02:03:39.749Z,24.57
2019-06-27T02:06:55.479Z,24.10
2019-06-27T02:10:10.626Z,22.90
2019-06-27T02:13:25.396Z,21.87
2019-06-27T02:16:40.383Z,24.30
2019-06-27T02:19:56.221Z,23.27
2019-06-27T02:23:11.230Z,24.50
2019-06-27T02:26:26.686Z,23.33
2019-06-27T02:29:41.646Z,23.50
2019-06-27T02:32:56.695Z,23.03
2019-06-27T02:36:12.035Z,23.53
2019-06-27T02:39:27.172Z,23.97
2019-06-27T02:42:42.435Z,23.47
2019-06-27T02:45:57.780Z,23.50
2019-06-27T02:49:12.845Z,25.93
2019-06-27T02:52:27.773Z,23.60
2019-06-27T02:55:42.636Z,25.93
2019-06-27T02:58:57.482Z,25.00
2019-06-27T03:02:12.701Z,24.60
2019-06-27T03:05:27.558Z,23.40
2019-06-27T03:08:43.225Z,26.37
2019-06-27T03:12:00.528Z,25.23
2019-06-27T03:15:16.161Z,25.93
2019-06-27T03:18:32.460Z,24.23
2019-06-27T03:21:47.351Z,24.50
2019-06-27T03:25:02.761Z,24.27
2019-06-27T03:28:17.759Z,25.50
2019-06-27T03:31:32.933Z,25.00
2019-06-27T03:34:47.639Z,23.93
2019-06-27T03:38:02.449Z,26.87
2019-06-27T03:41:17.192Z,26.20
2019-06-27T03:44:32.797Z,24.40
2019-06-27T03:47:48.480Z,24.13
2019-06-27T03:51:03.442Z,24.80
2019-06-27T03:54:18.516Z,23.10
2019-06-27T03:57:33.311Z,25.87
2019-06-27T04:00:49.843Z,27.13
2019-06-27T04:04:05.682Z,26.03
2019-06-27T04:07:20.414Z,24.87
2019-06-27T04:10:35.020Z,24.73
2019-06-27T04:13:52.031Z,25.87
2019-06-27T04:17:07.734Z,24.50
2019-06-27T04:20:22.865Z,23.57
2019-06-27T04:23:38.301Z,24.87
2019-06-27T04:26:54.787Z,25.43
2019-06-27T04:30:10.152Z,24.07
2019-06-27T04:33:26.607Z,27.73
2019-06-27T04:36:42.190Z,25.23
2019-06-27T04:39:58.446Z,25.93
2019-06-27T04:43:13.940Z,27.63
2019-06-27T04:46:28.594Z,24.23
2019-06-27T04:49:44.327Z,26.10
2019-06-27T04:53:00.695Z,24.90
2019-06-27T04:56:16.571Z,24.10
2019-06-27T04:59:51.510Z,27.23
2019-06-27T05:02:49.459Z,25.93
2019-06-27T05:06:04.266Z,24.83
2019-06-27T05:09:20.046Z,26.83
2019-06-27T05:16:49.882Z,21.20
2019-06-27T05:20:04.729Z,22.33
2019-06-27T05:23:19.589Z,23.00
2019-06-27T05:26:34.743Z,20.73
2019-06-27T05:29:49.858Z,18.73
2019-06-27T05:33:04.505Z,17.57
2019-06-27T05:36:20.999Z,16.23
2019-06-27T05:39:35.810Z,17.00
2019-06-27T05:42:51.198Z,17.07
2019-06-27T05:46:06.988Z,16.83
2019-06-27T05:49:21.766Z,15.30
2019-06-27T05:52:37.270Z,15.83
2019-06-27T05:55:52.453Z,14.30
2019-06-27T05:59:08.322Z,13.50
2019-06-27T06:02:22.900Z,13.80
2019-06-27T06:05:39.450Z,13.33
2019-06-27T06:08:54.553Z,13.07
2019-06-27T06:12:10.513Z,10.70
2019-06-27T06:15:25.971Z,11.33
2019-06-27T06:18:41.729Z,10.70
2019-06-27T06:21:56.567Z,11.73
2019-06-27T06:25:12.209Z,11.20
2019-06-27T06:28:28.310Z,10.67
2019-06-27T06:31:44.897Z,10.80
2019-06-27T06:35:01.324Z,9.73
2019-06-27T06:38:17.409Z,11.20
2019-06-27T06:41:32.354Z,9.37
2019-06-27T06:44:48.458Z,8.53
2019-06-27T06:48:04.843Z,9.13
2019-06-27T06:51:20.105Z,8.70
2019-06-27T06:54:34.844Z,9.00
2019-06-27T06:57:50.072Z,10.23
2019-06-27T07:01:05.212Z,9.27
2019-06-27T07:04:21.548Z,8.40
2019-06-27T07:07:37.192Z,7.40
2019-06-27T07:10:52.319Z,7.30
2019-06-27T07:14:07.523Z,7.40
2019-06-27T07:17:22.657Z,8.33
2019-06-27T07:20:38.836Z,7.80
2019-06-27T07:23:53.766Z,6.70
2019-06-27T07:27:08.598Z,6.80
2019-06-27T07:30:24.543Z,6.60
2019-06-27T07:33:39.659Z,7.33
2019-06-27T07:36:54.853Z,6.47
2019-06-27T07:40:11.865Z,7.27
2019-06-27T07:43:27.505Z,6.93
2019-06-27T07:46:42.442Z,7.00
2019-06-27T07:49:57.389Z,6.67
2019-06-27T07:53:12.239Z,6.93
2019-06-27T07:56:27.206Z,6.97
2019-06-27T07:59:42.437Z,6.20
2019-06-27T08:02:57.411Z,6.53
2019-06-27T08:06:12.031Z,5.63
2019-06-27T08:09:26.869Z,6.03
2019-06-27T08:12:43.046Z,6.43
2019-06-27T08:15:58.231Z,5.83
2019-06-27T08:19:14.292Z,5.83
2019-06-27T08:22:30.322Z,5.43
2019-06-27T08:25:45.513Z,5.43
2019-06-27T08:29:00.854Z,5.70
2019-06-27T08:32:16.783Z,7.23
2019-06-27T08:35:33.650Z,6.07
2019-06-27T08:38:48.643Z,6.27
2019-06-27T08:42:04.608Z,6.23
2019-06-27T08:45:19.776Z,6.23
2019-06-27T08:48:34.531Z,5.80
2019-06-27T08:51:49.638Z,6.43
2019-06-27T08:55:05.169Z,5.33
2019-06-27T08:58:20.065Z,4.70
2019-06-27T09:01:35.298Z,4.93
2019-06-27T09:04:50.078Z,4.70
2019-06-27T09:08:06.118Z,5.47
2019-06-27T09:11:21.653Z,4.30
2019-06-27T09:14:36.486Z,5.00
2019-06-27T09:17:51.399Z,4.33
2019-06-27T09:21:06.722Z,5.23
2019-06-27T09:24:22.716Z,5.73
2019-06-27T09:27:37.953Z,4.40
2019-06-27T09:30:52.987Z,3.73
2019-06-27T09:34:09.573Z,6.23
2019-06-27T09:37:25.061Z,4.83
2019-06-27T09:40:40.997Z,4.40
2019-06-27T09:43:57.093Z,4.73
2019-06-27T09:47:13.235Z,3.37
2019-06-27T09:50:28.150Z,3.43
2019-06-27T09:53:42.820Z,3.97
2019-06-27T09:56:57.462Z,3.13
2019-06-27T10:00:12.575Z,3.10
2019-06-27T10:03:27.764Z,3.27
2019-06-27T10:06:42.434Z,2.97
2019-06-27T10:09:57.340Z,2.70
2019-06-27T10:13:12.506Z,4.03
2019-06-27T10:16:27.741Z,3.00
2019-06-27T10:19:42.906Z,3.83
2019-06-27T10:22:58.247Z,2.63
2019-06-27T10:26:13.205Z,3.00
2019-06-27T10:29:27.971Z,2.97
2019-06-27T10:32:57.872Z,3.97
2019-06-27T10:35:59.673Z,2.70
2019-06-27T10:39:14.426Z,2.70
2019-06-27T10:42:31.143Z,2.07
2019-06-27T10:45:46.937Z,5.63
2019-06-27T10:49:05.228Z,1.50
2019-06-27T10:52:20.430Z,1.60
2019-06-27T10:55:36.854Z,1.80
2019-06-27T10:58:52.758Z,3.43
2019-06-27T11:02:08.048Z,2.30
2019-06-27T11:05:22.878Z,2.00
2019-06-27T11:08:37.639Z,3.03
2019-06-27T11:11:52.916Z,2.70
2019-06-27T11:15:11.407Z,2.73
2019-06-27T11:18:27.704Z,3.27
2019-06-27T11:21:43.319Z,1.77
2019-06-27T11:24:58.201Z,2.67
2019-06-27T11:28:13.008Z,5.17
2019-06-27T11:31:27.980Z,2.27
2019-06-27T11:34:43.569Z,2.47
2019-06-27T11:37:58.400Z,2.27
2019-06-27T11:41:13.292Z,2.30
2019-06-27T11:44:28.168Z,2.43
2019-06-27T11:47:43.103Z,2.93
2019-06-27T11:50:59.745Z,3.03
2019-06-27T11:54:15.271Z,1.80
2019-06-27T11:57:30.205Z,2.60
2019-06-27T12:00:45.865Z,3.10
2019-06-27T12:04:00.909Z,4.80
2019-06-27T12:07:16.302Z,3.47
2019-06-27T12:10:32.232Z,6.30
2019-06-27T12:16:49.971Z,4.63
2019-06-27T12:20:06.331Z,4.37
2019-06-27T12:23:21.359Z,3.60
2019-06-27T12:26:37.034Z,2.23
2019-06-27T12:29:52.291Z,2.30
2019-06-27T12:33:07.018Z,2.50
2019-06-27T12:36:22.068Z,2.33
2019-06-27T12:39:37.485Z,2.13
2019-06-27T12:42:52.431Z,2.23
2019-06-27T12:46:07.647Z,2.20
2019-06-27T12:49:22.502Z,2.70
2019-06-27T12:52:38.551Z,3.17
2019-06-27T12:55:53.727Z,4.07
2019-06-27T12:59:09.007Z,2.40
2019-06-27T13:02:24.028Z,1.90
2019-06-27T13:05:38.947Z,2.23
2019-06-27T13:08:54.361Z,2.70
2019-06-27T13:12:10.158Z,3.00
2019-06-27T13:15:25.190Z,3.20
2019-06-27T13:18:40.800Z,3.43
2019-06-27T13:21:55.675Z,4.47
2019-06-27T13:25:11.065Z,2.20
2019-06-27T13:28:26.212Z,2.90
2019-06-27T13:31:41.878Z,3.37
2019-06-27T13:34:56.983Z,3.53
2019-06-27T13:38:13.495Z,2.77
2019-06-27T13:41:28.782Z,4.80
2019-06-27T13:44:45.022Z,2.57
2019-06-27T13:48:00.704Z,2.60
2019-06-27T13:51:16.184Z,2.60
2019-06-27T13:54:31.549Z,3.23
2019-06-27T13:57:46.468Z,3.00
2019-06-27T14:01:01.546Z,2.63
2019-06-27T14:04:17.558Z,4.80
2019-06-27T14:07:33.563Z,2.57
2019-06-27T14:10:49.456Z,3.07
2019-06-27T14:14:04.496Z,2.97
2019-06-27T14:17:19.369Z,3.50
2019-06-27T14:20:42.947Z,6.90
2019-06-27T14:23:57.991Z,2.73
2019-06-27T14:27:13.357Z,3.33
2019-06-27T14:30:29.398Z,5.30
2019-06-27T14:33:44.781Z,3.43
2019-06-27T14:36:59.918Z,6.13
2019-06-27T14:40:15.539Z,2.83
2019-06-27T14:43:51.277Z,2.33
2019-06-27T14:47:15.211Z,3.57
2019-06-27T14:50:35.739Z,3.60
2019-06-27T14:53:57.389Z,3.43
2019-06-27T14:57:16.567Z,3.17
2019-06-27T15:00:39.005Z,2.77
2019-06-27T15:03:56.556Z,3.33
2019-06-27T15:07:22.907Z,2.53
2019-06-27T15:10:38.254Z,3.93
2019-06-27T15:13:54.738Z,2.83
2019-06-27T15:17:10.224Z,3.13
2019-06-27T15:20:26.330Z,3.07
2019-06-27T15:23:40.949Z,3.57
2019-06-27T15:26:57.076Z,2.50
2019-06-27T15:30:12.746Z,2.93
2019-06-27T15:33:27.694Z,2.40
2019-06-27T15:36:42.952Z,4.37
2019-06-27T15:39:57.857Z,4.30
2019-06-27T15:43:13.759Z,3.27
2019-06-27T15:46:28.715Z,4.17
2019-06-27T15:49:43.980Z,2.00
2019-06-27T15:53:00.256Z,2.90
2019-06-27T15:56:15.457Z,2.27
2019-06-27T15:59:30.143Z,3.93
2019-06-27T16:02:45.435Z,1.80
2019-06-27T16:06:09.076Z,4.37
2019-06-27T16:09:17.860Z,2.70
2019-06-27T16:12:33.519Z,1.97
2019-06-27T16:15:48.489Z,3.90
2019-06-27T16:19:08.041Z,3.20
2019-06-27T16:22:23.772Z,4.20
2019-06-27T16:25:39.104Z,2.73
2019-06-27T16:28:55.373Z,1.93
2019-06-27T16:32:10.940Z,7.60
2019-06-27T16:35:25.882Z,2.53
2019-06-27T16:38:41.923Z,1.70
2019-06-27T16:41:56.753Z,3.60
2019-06-27T16:45:12.510Z,2.63
2019-06-27T16:48:27.738Z,2.00
2019-06-27T16:51:44.338Z,2.60
2019-06-27T16:54:59.574Z,1.70
2019-06-27T16:58:14.618Z,3.87
2019-06-27T17:01:30.847Z,3.03
2019-06-27T17:04:45.900Z,3.37
2019-06-27T17:08:01.573Z,4.93
2019-06-27T17:11:18.819Z,1.83
2019-06-27T17:14:34.064Z,2.03
2019-06-27T17:17:50.086Z,4.30
2019-06-27T17:21:05.162Z,3.27
2019-06-27T17:24:21.425Z,1.50
2019-06-27T17:27:36.414Z,3.07
2019-06-27T17:30:51.450Z,2.43
2019-06-27T17:34:06.698Z,4.63
2019-06-27T17:37:22.228Z,3.43
2019-06-27T17:40:37.652Z,2.07
2019-06-27T17:43:52.860Z,4.13
2019-06-27T17:47:08.539Z,4.43
2019-06-27T17:50:24.763Z,2.10
2019-06-27T17:53:39.945Z,4.47
2019-06-27T17:56:54.887Z,2.70
2019-06-27T18:00:11.128Z,2.50
2019-06-27T18:03:27.238Z,3.47
2019-06-27T18:06:42.076Z,5.03
2019-06-27T18:09:57.717Z,3.13
2019-06-27T18:13:12.866Z,3.43
2019-06-27T18:16:28.148Z,4.03
2019-06-27T18:19:43.541Z,2.63
2019-06-27T18:22:58.433Z,3.10
2019-06-27T18:26:15.006Z,2.33
2019-06-27T18:29:29.863Z,4.80
2019-06-27T18:32:44.596Z,3.53
2019-06-27T18:36:03.018Z,3.10
2019-06-27T18:39:16.850Z,3.03
2019-06-27T18:42:31.561Z,2.53
2019-06-27T18:45:46.434Z,4.77
2019-06-27T18:49:01.891Z,4.63
2019-06-27T18:52:16.711Z,3.10
2019-06-27T18:55:31.719Z,3.40
2019-06-27T18:58:47.441Z,3.63
2019-06-27T19:02:03.689Z,2.43
2019-06-27T19:05:18.783Z,3.83
2019-06-27T19:08:34.838Z,2.47
2019-06-27T19:11:50.311Z,4.07
2019-06-27T19:15:06.038Z,3.93
2019-06-27T19:18:43.816Z,3.20
2019-06-27T19:22:22.909Z,4.17
2019-06-27T19:25:38.764Z,2.57
2019-06-27T19:28:55.044Z,7.00
2019-06-27T19:32:10.709Z,3.00
2019-06-27T19:35:25.382Z,3.27
2019-06-27T19:38:41.325Z,4.97
2019-06-27T19:41:57.267Z,3.80
2019-06-27T19:45:13.779Z,6.27
2019-06-27T19:48:28.731Z,3.87
2019-06-27T19:51:43.363Z,4.33
2019-06-27T19:54:59.229Z,3.80
2019-06-27T19:58:14.189Z,3.83
2019-06-27T20:01:30.731Z,4.50
2019-06-27T20:04:45.279Z,2.67
2019-06-27T20:08:17.477Z,4.03
2019-06-27T20:11:18.186Z,3.33
2019-06-27T20:14:33.134Z,5.83
2019-06-27T20:17:49.137Z,4.63
2019-06-27T20:21:04.007Z,5.63
2019-06-27T20:24:21.767Z,4.60
2019-06-27T20:27:36.473Z,5.93
2019-06-27T20:30:51.449Z,3.73
2019-06-27T20:34:06.310Z,3.53
2019-06-27T20:37:22.708Z,5.37
2019-06-27T20:40:38.075Z,5.47
2019-06-27T20:43:53.273Z,5.90
2019-06-27T20:47:08.316Z,4.20
2019-06-27T20:50:23.643Z,4.03
2019-06-27T20:53:39.073Z,3.27
2019-06-27T20:56:54.854Z,4.90
2019-06-27T21:00:10.353Z,4.00
2019-06-27T21:03:25.947Z,2.80
2019-06-27T21:06:41.105Z,4.20
2019-06-27T21:09:56.262Z,4.40
2019-06-27T21:16:50.197Z,5.20
2019-06-27T21:20:05.666Z,4.83
2019-06-27T21:23:20.880Z,3.97
2019-06-27T21:26:36.070Z,5.13
2019-06-27T21:29:50.716Z,7.17
2019-06-27T21:33:06.532Z,3.93
2019-06-27T21:36:22.060Z,3.53
2019-06-27T21:39:37.093Z,4.87
2019-06-27T21:42:52.250Z,3.33
2019-06-27T21:46:07.392Z,3.87
2019-06-27T21:49:22.140Z,4.10
2019-06-27T21:52:38.296Z,4.17
2019-06-27T21:55:53.028Z,3.63
2019-06-27T21:59:09.488Z,2.73
2019-06-27T22:02:24.272Z,4.17
2019-06-27T22:05:39.709Z,6.60
2019-06-27T22:08:57.290Z,5.47
2019-06-27T22:12:13.486Z,3.47
2019-06-27T22:15:28.459Z,4.00
2019-06-27T22:18:43.376Z,4.53
2019-06-27T22:21:59.577Z,4.83
2019-06-27T22:25:14.583Z,3.23
2019-06-27T22:28:30.983Z,4.77
2019-06-27T22:31:46.007Z,6.73
2019-06-27T22:35:00.752Z,5.20
2019-06-27T22:38:32.628Z,3.57
2019-06-27T22:42:04.659Z,5.60
2019-06-27T22:45:37.016Z,4.87
2019-06-27T22:48:51.518Z,5.93
2019-06-27T22:52:31.486Z,4.93
2019-06-27T22:55:46.793Z,4.73
2019-06-27T22:59:02.175Z,5.07
2019-06-27T23:02:18.476Z,3.73
2019-06-27T23:05:33.337Z,3.60
2019-06-27T23:08:48.290Z,3.43
2019-06-27T23:12:03.830Z,4.57
2019-06-27T23:15:19.414Z,3.77
2019-06-27T23:18:35.555Z,3.87
2019-06-27T23:21:50.195Z,4.63
2019-06-27T23:25:05.194Z,6.03
2019-06-27T23:28:20.227Z,3.17
2019-06-27T23:31:36.081Z,3.83
2019-06-27T23:34:51.752Z,3.70
2019-06-27T23:38:06.893Z,2.77
2019-06-27T23:41:21.921Z,3.33
2019-06-27T23:44:36.676Z,4.20
2019-06-27T23:47:51.614Z,4.60
2019-06-27T23:51:06.760Z,4.00
2019-06-27T23:54:24.398Z,4.07
2019-06-27T23:57:48.710Z,3.63
